createdAt,value
2018-12-19T00:00:31.967Z,1018.18
2018-12-19T00:01:31.951Z,1018.14
2018-12-19T00:02:31.948Z,1018.10
2018-12-19T00:03:31.946Z,1018.13
2018-12-19T00:04:31.952Z,1018.09
2018-12-19T00:05:31.914Z,1018.12
2018-12-19T00:06:31.897Z,1018.07
2018-12-19T00:07:32.338Z,1018.07
2018-12-19T00:08:31.883Z,1018.07
2018-12-19T00:09:31.884Z,1018.10
2018-12-19T00:10:31.878Z,1018.11
2018-12-19T00:11:31.852Z,1018.11
2018-12-19T00:12:31.854Z,1018.07
2018-12-19T00:13:31.836Z,1018.07
2018-12-19T00:14:31.837Z,1018.05
2018-12-19T00:15:31.827Z,1018.06
2018-12-19T00:16:31.813Z,1018.04
2018-12-19T00:17:31.788Z,1018.04
2018-12-19T00:18:31.781Z,1018.00
2018-12-19T00:19:31.789Z,1018.01
2018-12-19T00:20:31.753Z,1018.00
2018-12-19T00:21:31.756Z,1018.05
2018-12-19T00:22:31.739Z,1018.03
2018-12-19T00:23:31.723Z,1018.02
2018-12-19T00:24:31.785Z,1018.03
2018-12-19T00:25:31.701Z,1018.04
2018-12-19T00:26:31.693Z,1018.01
2018-12-19T00:27:31.805Z,1018.01
2018-12-19T00:28:31.739Z,1017.96
2018-12-19T00:29:31.665Z,1017.88
2018-12-19T00:30:31.674Z,1017.87
2018-12-19T00:31:31.641Z,1017.90
2018-12-19T00:32:31.651Z,1017.83
2018-12-19T00:33:31.630Z,1017.85
2018-12-19T00:34:31.612Z,1017.87
2018-12-19T00:35:31.618Z,1017.87
2018-12-19T00:36:31.594Z,1017.89
2018-12-19T00:37:31.627Z,1017.92
2018-12-19T00:38:31.572Z,1017.90
2018-12-19T00:39:31.568Z,1017.88
2018-12-19T00:40:31.563Z,1017.89
2018-12-19T00:41:31.539Z,1017.89
2018-12-19T00:42:31.527Z,1017.90
2018-12-19T00:43:31.541Z,1017.92
2018-12-19T00:44:31.505Z,1017.87
2018-12-19T00:45:31.512Z,1017.85
2018-12-19T00:46:31.485Z,1017.86
2018-12-19T00:47:31.473Z,1017.84
2018-12-19T00:48:31.486Z,1017.80
2018-12-19T00:49:31.456Z,1017.82
2018-12-19T00:50:31.463Z,1017.84
2018-12-19T00:51:31.436Z,1017.81
2018-12-19T00:52:31.420Z,1017.80
2018-12-19T00:53:31.421Z,1017.84
2018-12-19T00:54:31.428Z,1017.85
2018-12-19T00:55:31.425Z,1017.83
2018-12-19T00:56:31.387Z,1017.87
2018-12-19T00:57:31.375Z,1017.88
2018-12-19T00:58:31.356Z,1017.82
2018-12-19T00:59:31.346Z,1017.84
2018-12-19T01:00:31.364Z,1017.92
2018-12-19T01:01:31.327Z,1017.87
2018-12-19T01:02:31.326Z,1017.85
2018-12-19T01:03:31.312Z,1017.86
2018-12-19T01:04:31.298Z,1017.82
2018-12-19T01:05:31.328Z,1017.83
2018-12-19T01:06:31.274Z,1017.76
2018-12-19T01:07:31.276Z,1017.77
2018-12-19T01:08:31.276Z,1017.71
2018-12-19T01:09:31.257Z,1017.71
2018-12-19T01:10:31.234Z,1017.72
2018-12-19T01:11:31.248Z,1017.75
2018-12-19T01:12:31.210Z,1017.72
2018-12-19T01:13:31.207Z,1017.68
2018-12-19T01:14:31.202Z,1017.69
2018-12-19T01:15:31.194Z,1017.70
2018-12-19T01:16:31.207Z,1017.65
2018-12-19T01:17:31.164Z,1017.68
2018-12-19T01:18:31.173Z,1017.72
2018-12-19T01:19:31.141Z,1017.71
2018-12-19T01:20:31.146Z,1017.74
2018-12-19T01:21:31.146Z,1017.77
2018-12-19T01:22:31.107Z,1017.72
2018-12-19T01:23:31.116Z,1017.73
2018-12-19T01:24:31.086Z,1017.69
2018-12-19T01:25:31.084Z,1017.67
2018-12-19T01:26:31.075Z,1017.67
2018-12-19T01:27:31.082Z,1017.66
2018-12-19T01:28:31.048Z,1017.62
2018-12-19T01:29:31.044Z,1017.56
2018-12-19T01:30:31.022Z,1017.54
2018-12-19T01:31:31.018Z,1017.49
2018-12-19T01:32:31.623Z,1017.49
2018-12-19T01:33:30.995Z,1017.47
2018-12-19T01:34:30.985Z,1017.48
2018-12-19T01:35:30.972Z,1017.52
2018-12-19T01:36:30.962Z,1017.57
2018-12-19T01:37:30.974Z,1017.54
2018-12-19T01:38:30.945Z,1017.62
2018-12-19T01:39:30.930Z,1017.61
2018-12-19T01:40:30.919Z,1017.65
2018-12-19T01:41:30.911Z,1017.63
2018-12-19T01:42:30.925Z,1017.66
2018-12-19T01:43:30.902Z,1017.62
2018-12-19T01:44:30.884Z,1017.65
2018-12-19T01:45:30.871Z,1017.63
2018-12-19T01:46:30.858Z,1017.60
2018-12-19T01:47:30.874Z,1017.61
2018-12-19T01:48:30.843Z,1017.68
2018-12-19T01:49:30.849Z,1017.64
2018-12-19T01:50:30.816Z,1017.66
2018-12-19T01:51:30.810Z,1017.62
2018-12-19T01:52:30.794Z,1017.69
2018-12-19T01:53:30.798Z,1017.71
2018-12-19T01:54:30.790Z,1017.72
2018-12-19T01:55:30.770Z,1017.67
2018-12-19T01:56:30.760Z,1017.61
2018-12-19T01:57:30.738Z,1017.70
2018-12-19T01:58:30.754Z,1017.64
2018-12-19T01:59:30.742Z,1017.61
2018-12-19T02:00:30.724Z,1017.68
2018-12-19T02:01:30.703Z,1017.60
2018-12-19T02:02:30.698Z,1017.59
2018-12-19T02:03:30.681Z,1017.66
2018-12-19T02:04:30.710Z,1017.61
2018-12-19T02:05:30.659Z,1017.54
2018-12-19T02:06:30.654Z,1017.53
2018-12-19T02:07:30.640Z,1017.53
2018-12-19T02:08:30.629Z,1017.48
2018-12-19T02:09:30.616Z,1017.52
2018-12-19T02:10:30.626Z,1017.51
2018-12-19T02:11:30.597Z,1017.42
2018-12-19T02:12:30.594Z,1017.47
2018-12-19T02:13:30.598Z,1017.34
2018-12-19T02:14:30.570Z,1017.40
2018-12-19T02:15:30.559Z,1017.41
2018-12-19T02:16:30.540Z,1017.35
2018-12-19T02:17:30.536Z,1017.36
2018-12-19T02:18:30.544Z,1017.38
2018-12-19T02:19:30.519Z,1017.38
2018-12-19T02:20:30.522Z,1017.32
2018-12-19T02:21:30.498Z,1017.30
2018-12-19T02:22:30.479Z,1017.26
2018-12-19T02:23:30.477Z,1017.26
2018-12-19T02:24:30.487Z,1017.32
2018-12-19T02:25:30.455Z,1017.33
2018-12-19T02:26:30.454Z,1017.28
2018-12-19T02:27:30.431Z,1017.31
2018-12-19T02:28:30.414Z,1017.24
2018-12-19T02:29:30.444Z,1017.25
2018-12-19T02:30:30.398Z,1017.23
2018-12-19T02:31:30.388Z,1017.24
2018-12-19T02:32:30.374Z,1017.25
2018-12-19T02:33:30.369Z,1017.26
2018-12-19T02:34:30.373Z,1017.18
2018-12-19T02:35:30.352Z,1017.17
2018-12-19T02:36:30.336Z,1017.20
2018-12-19T02:37:30.327Z,1017.18
2018-12-19T02:38:30.314Z,1017.19
2018-12-19T02:39:36.105Z,1017.18
2018-12-19T02:40:31.298Z,1017.17
2018-12-19T02:41:30.295Z,1017.11
2018-12-19T02:42:30.271Z,1017.13
2018-12-19T02:43:30.263Z,1017.15
2018-12-19T02:44:30.272Z,1017.18
2018-12-19T02:45:30.256Z,1017.19
2018-12-19T02:46:30.234Z,1017.20
2018-12-19T02:47:30.231Z,1017.18
2018-12-19T02:48:30.212Z,1017.17
2018-12-19T02:49:30.198Z,1017.13
2018-12-19T02:50:30.214Z,1017.05
2018-12-19T02:51:30.179Z,1017.16
2018-12-19T02:52:30.172Z,1017.05
2018-12-19T02:53:30.164Z,1017.04
2018-12-19T02:54:30.144Z,1017.04
2018-12-19T02:55:30.157Z,1017.02
2018-12-19T02:56:30.130Z,1016.99
2018-12-19T02:57:30.122Z,1016.91
2018-12-19T02:58:30.109Z,1017.01
2018-12-19T02:59:30.107Z,1016.96
2018-12-19T03:00:30.119Z,1016.93
2018-12-19T03:01:30.076Z,1016.90
2018-12-19T03:02:30.062Z,1016.93
2018-12-19T03:03:30.054Z,1016.98
2018-12-19T03:04:30.054Z,1016.94
2018-12-19T03:05:30.050Z,1016.88
2018-12-19T03:06:30.037Z,1016.97
2018-12-19T03:07:30.036Z,1016.94
2018-12-19T03:08:30.000Z,1016.91
2018-12-19T03:09:29.985Z,1016.92
2018-12-19T03:10:29.998Z,1016.89
2018-12-19T03:11:29.989Z,1016.84
2018-12-19T03:12:29.955Z,1016.81
2018-12-19T03:13:29.965Z,1016.84
2018-12-19T03:14:29.974Z,1016.88
2018-12-19T03:15:29.924Z,1016.90
2018-12-19T03:16:29.937Z,1016.88
2018-12-19T03:17:29.905Z,1016.85
2018-12-19T03:18:29.897Z,1016.85
2018-12-19T03:19:29.898Z,1016.88
2018-12-19T03:20:29.902Z,1016.98
2018-12-19T03:21:29.877Z,1016.87
2018-12-19T03:22:29.857Z,1016.91
2018-12-19T03:23:29.841Z,1016.88
2018-12-19T03:24:29.841Z,1016.85
2018-12-19T03:25:29.821Z,1016.85
2018-12-19T03:26:29.848Z,1016.79
2018-12-19T03:27:29.803Z,1016.81
2018-12-19T03:28:29.796Z,1016.88
2018-12-19T03:29:29.783Z,1016.86
2018-12-19T03:30:29.784Z,1016.82
2018-12-19T03:31:29.786Z,1016.83
2018-12-19T03:32:29.749Z,1016.86
2018-12-19T03:33:29.745Z,1016.84
2018-12-19T03:34:29.727Z,1016.82
2018-12-19T03:35:29.715Z,1016.85
2018-12-19T03:36:29.726Z,1016.79
2018-12-19T03:37:29.694Z,1016.76
2018-12-19T03:38:29.692Z,1016.75
2018-12-19T03:39:29.680Z,1016.68
2018-12-19T03:40:29.664Z,1016.71
2018-12-19T03:41:29.668Z,1016.72
2018-12-19T03:42:29.646Z,1016.69
2018-12-19T03:43:29.640Z,1016.66
2018-12-19T03:44:29.636Z,1016.68
2018-12-19T03:45:29.622Z,1016.63
2018-12-19T03:46:29.620Z,1016.62
2018-12-19T03:47:29.592Z,1016.62
2018-12-19T03:48:29.590Z,1016.66
2018-12-19T03:49:29.582Z,1016.63
2018-12-19T03:50:29.558Z,1016.66
2018-12-19T03:51:29.574Z,1016.69
2018-12-19T03:52:29.544Z,1016.68
2018-12-19T03:53:29.524Z,1016.66
2018-12-19T03:54:29.526Z,1016.60
2018-12-19T03:55:29.514Z,1016.59
2018-12-19T03:56:29.538Z,1016.56
2018-12-19T03:57:29.490Z,1016.52
2018-12-19T03:58:29.482Z,1016.50
2018-12-19T03:59:29.466Z,1016.56
2018-12-19T04:00:29.460Z,1016.57
2018-12-19T04:01:29.485Z,1016.59
2018-12-19T04:02:29.440Z,1016.56
2018-12-19T04:03:29.428Z,1016.55
2018-12-19T04:04:29.415Z,1016.49
2018-12-19T04:05:29.408Z,1016.45
2018-12-19T04:06:29.402Z,1016.47
2018-12-19T04:07:29.410Z,1016.46
2018-12-19T04:08:29.386Z,1016.42
2018-12-19T04:09:29.360Z,1016.44
2018-12-19T04:10:29.353Z,1016.38
2018-12-19T04:11:29.349Z,1016.37
2018-12-19T04:12:29.357Z,1016.40
2018-12-19T04:13:29.322Z,1016.38
2018-12-19T04:14:29.332Z,1016.34
2018-12-19T04:15:29.297Z,1016.27
2018-12-19T04:16:29.324Z,1016.27
2018-12-19T04:17:29.303Z,1016.24
2018-12-19T04:18:29.273Z,1016.23
2018-12-19T04:19:29.259Z,1016.20
2018-12-19T04:20:29.257Z,1016.16
2018-12-19T04:21:29.242Z,1016.19
2018-12-19T04:22:36.496Z,1016.17
2018-12-19T04:23:29.223Z,1016.13
2018-12-19T04:24:29.222Z,1016.10
2018-12-19T04:25:29.200Z,1016.10
2018-12-19T04:26:29.191Z,1016.03
2018-12-19T04:27:29.221Z,1015.97
2018-12-19T04:28:29.159Z,1016.01
2018-12-19T04:29:29.159Z,1015.96
2018-12-19T04:30:29.151Z,1015.94
2018-12-19T04:31:29.132Z,1015.89
2018-12-19T04:32:29.131Z,1015.90
2018-12-19T04:33:29.202Z,1015.85
2018-12-19T04:34:29.103Z,1015.88
2018-12-19T04:35:29.092Z,1015.79
2018-12-19T04:36:29.079Z,1015.87
2018-12-19T04:37:29.073Z,1015.84
2018-12-19T04:38:29.078Z,1015.80
2018-12-19T04:39:29.047Z,1015.75
2018-12-19T04:40:29.037Z,1015.68
2018-12-19T04:41:29.032Z,1015.66
2018-12-19T04:42:29.018Z,1015.63
2018-12-19T04:43:29.053Z,1015.67
2018-12-19T04:44:29.005Z,1015.62
2018-12-19T04:45:28.992Z,1015.59
2018-12-19T04:46:29.023Z,1015.62
2018-12-19T04:47:28.971Z,1015.60
2018-12-19T04:48:28.976Z,1015.60
2018-12-19T04:49:28.946Z,1015.61
2018-12-19T04:50:28.937Z,1015.59
2018-12-19T04:51:28.925Z,1015.57
2018-12-19T04:52:28.916Z,1015.60
2018-12-19T04:53:28.921Z,1015.52
2018-12-19T04:54:28.891Z,1015.45
2018-12-19T04:55:28.885Z,1015.45
2018-12-19T04:56:28.872Z,1015.42
2018-12-19T04:57:28.864Z,1015.36
2018-12-19T04:58:28.881Z,1015.38
2018-12-19T04:59:28.853Z,1015.31
2018-12-19T05:00:28.837Z,1015.28
2018-12-19T05:01:28.823Z,1015.34
2018-12-19T05:02:28.808Z,1015.29
2018-12-19T05:03:28.817Z,1015.37
2018-12-19T05:04:28.792Z,1015.41
2018-12-19T05:05:28.784Z,1015.40
2018-12-19T05:06:28.770Z,1015.37
2018-12-19T05:07:28.764Z,1015.35
2018-12-19T05:08:28.770Z,1015.34
2018-12-19T05:09:28.752Z,1015.27
2018-12-19T05:10:28.844Z,1015.31
2018-12-19T05:11:28.720Z,1015.23
2018-12-19T05:12:28.705Z,1015.27
2018-12-19T05:13:28.716Z,1015.20
2018-12-19T05:14:28.679Z,1015.19
2018-12-19T05:15:28.671Z,1015.17
2018-12-19T05:16:28.671Z,1015.26
2018-12-19T05:17:28.662Z,1015.24
2018-12-19T05:18:28.673Z,1015.25
2018-12-19T05:19:28.642Z,1015.17
2018-12-19T05:20:28.620Z,1015.16
2018-12-19T05:21:28.606Z,1015.27
2018-12-19T05:22:28.610Z,1015.29
2018-12-19T05:23:28.620Z,1015.37
2018-12-19T05:24:28.583Z,1015.32
2018-12-19T05:25:28.566Z,1015.36
2018-12-19T05:26:28.558Z,1015.34
2018-12-19T05:27:28.548Z,1015.28
2018-12-19T05:28:28.576Z,1015.23
2018-12-19T05:29:28.528Z,1015.16
2018-12-19T05:30:28.524Z,1015.27
2018-12-19T05:31:28.509Z,1015.33
2018-12-19T05:32:28.554Z,1015.31
2018-12-19T05:33:28.515Z,1015.25
2018-12-19T05:34:28.483Z,1015.27
2018-12-19T05:35:28.462Z,1015.31
2018-12-19T05:36:28.456Z,1015.30
2018-12-19T05:37:28.441Z,1015.25
2018-12-19T05:38:28.433Z,1015.24
2018-12-19T05:39:28.581Z,1015.25
2018-12-19T05:40:28.416Z,1015.23
2018-12-19T05:41:28.402Z,1015.22
2018-12-19T05:42:28.401Z,1015.24
2018-12-19T05:43:28.414Z,1015.33
2018-12-19T05:44:28.394Z,1015.34
2018-12-19T05:45:28.358Z,1015.38
2018-12-19T05:46:28.357Z,1015.38
2018-12-19T05:47:28.338Z,1015.42
2018-12-19T05:48:28.334Z,1015.37
2018-12-19T05:49:28.341Z,1015.37
2018-12-19T05:50:28.311Z,1015.31
2018-12-19T05:51:28.296Z,1015.34
2018-12-19T05:52:28.293Z,1015.28
2018-12-19T05:53:28.276Z,1015.31
2018-12-19T05:54:28.287Z,1015.39
2018-12-19T05:55:28.259Z,1015.33
2018-12-19T05:56:28.258Z,1015.32
2018-12-19T05:57:28.237Z,1015.32
2018-12-19T05:58:28.234Z,1015.25
2018-12-19T05:59:28.233Z,1015.32
2018-12-19T06:00:28.206Z,1015.25
2018-12-19T06:01:28.214Z,1015.31
2018-12-19T06:02:28.191Z,1015.30
2018-12-19T06:03:28.182Z,1015.33
2018-12-19T06:04:28.170Z,1015.34
2018-12-19T06:05:28.154Z,1015.30
2018-12-19T06:06:28.157Z,1015.28
2018-12-19T06:07:28.130Z,1015.29
2018-12-19T06:08:28.122Z,1015.32
2018-12-19T06:09:28.117Z,1015.21
2018-12-19T06:10:28.128Z,1015.23
2018-12-19T06:11:28.089Z,1015.17
2018-12-19T06:12:28.082Z,1015.20
2018-12-19T06:13:28.067Z,1015.22
2018-12-19T06:14:28.054Z,1015.26
2018-12-19T06:15:28.062Z,1015.24
2018-12-19T06:16:28.054Z,1015.21
2018-12-19T06:17:28.038Z,1015.18
2018-12-19T06:18:28.022Z,1015.14
2018-12-19T06:19:28.005Z,1015.06
2018-12-19T06:20:27.991Z,1015.06
2018-12-19T06:21:28.148Z,1015.03
2018-12-19T06:22:27.982Z,1015.03
2018-12-19T06:23:27.967Z,1015.05
2018-12-19T06:24:27.950Z,1015.05
2018-12-19T06:25:27.945Z,1015.14
2018-12-19T06:26:28.403Z,1015.15
2018-12-19T06:27:27.924Z,1015.14
2018-12-19T06:28:27.930Z,1015.08
2018-12-19T06:29:27.898Z,1015.07
2018-12-19T06:30:27.902Z,1015.01
2018-12-19T06:31:27.938Z,1015.00
2018-12-19T06:32:27.866Z,1014.99
2018-12-19T06:33:27.862Z,1015.05
2018-12-19T06:34:35.909Z,1015.05
2018-12-19T06:35:27.879Z,1015.05
2018-12-19T06:36:27.860Z,1015.16
2018-12-19T06:37:27.816Z,1015.07
2018-12-19T06:38:27.810Z,1015.12
2018-12-19T06:39:27.792Z,1015.10
2018-12-19T06:40:32.651Z,1015.10
2018-12-19T06:41:28.792Z,1015.16
2018-12-19T06:42:27.766Z,1015.09
2018-12-19T06:43:27.752Z,1015.08
2018-12-19T06:44:27.746Z,1015.14
2018-12-19T06:45:27.736Z,1015.11
2018-12-19T06:46:27.750Z,1015.11
2018-12-19T06:47:27.707Z,1015.06
2018-12-19T06:48:27.702Z,1015.06
2018-12-19T06:49:27.697Z,1015.05
2018-12-19T06:50:27.674Z,1015.09
2018-12-19T06:51:27.680Z,1015.04
2018-12-19T06:52:27.667Z,1015.05
2018-12-19T06:53:27.701Z,1015.05
2018-12-19T06:54:27.636Z,1015.09
2018-12-19T06:55:27.634Z,1015.11
2018-12-19T06:56:27.639Z,1015.13
2018-12-19T06:57:27.618Z,1015.20
2018-12-19T06:58:27.603Z,1015.09
2018-12-19T06:59:27.586Z,1015.16
2018-12-19T07:00:27.573Z,1015.16
2018-12-19T07:01:27.571Z,1015.13
2018-12-19T07:02:27.564Z,1015.06
2018-12-19T07:03:27.560Z,1015.13
2018-12-19T07:04:27.536Z,1015.05
2018-12-19T07:05:27.532Z,1015.08
2018-12-19T07:06:27.505Z,1015.07
2018-12-19T07:07:27.521Z,1015.08
2018-12-19T07:08:27.493Z,1014.99
2018-12-19T07:09:27.492Z,1014.94
2018-12-19T07:10:27.464Z,1014.89
2018-12-19T07:11:27.460Z,1014.95
2018-12-19T07:12:27.468Z,1014.99
2018-12-19T07:13:27.694Z,1015.01
2018-12-19T07:14:27.438Z,1015.02
2018-12-19T07:15:27.445Z,1015.07
2018-12-19T07:16:27.464Z,1015.01
2018-12-19T07:17:27.440Z,1014.99
2018-12-19T07:18:27.381Z,1014.99
2018-12-19T07:19:27.393Z,1014.96
2018-12-19T07:20:27.374Z,1015.04
2018-12-19T07:21:27.362Z,1015.09
2018-12-19T07:22:27.344Z,1015.09
2018-12-19T07:23:27.346Z,1015.07
2018-12-19T07:24:27.320Z,1015.04
2018-12-19T07:25:27.308Z,1014.98
2018-12-19T07:26:27.312Z,1014.89
2018-12-19T07:27:27.302Z,1014.92
2018-12-19T07:28:27.318Z,1014.98
2018-12-19T07:29:27.272Z,1014.99
2018-12-19T07:30:27.258Z,1014.99
2018-12-19T07:31:27.244Z,1015.00
2018-12-19T07:32:27.254Z,1014.95
2018-12-19T07:33:27.291Z,1014.96
2018-12-19T07:34:27.217Z,1014.93
2018-12-19T07:35:27.209Z,1014.98
2018-12-19T07:36:27.223Z,1015.00
2018-12-19T07:37:27.195Z,1014.99
2018-12-19T07:38:27.190Z,1015.04
2018-12-19T07:39:27.169Z,1015.03
2018-12-19T07:40:27.154Z,1015.04
2018-12-19T07:41:34.950Z,1015.03
2018-12-19T07:42:27.148Z,1014.98
2018-12-19T07:43:27.151Z,1014.98
2018-12-19T07:44:27.122Z,1015.02
2018-12-19T07:45:27.103Z,1014.96
2018-12-19T07:46:27.104Z,1014.93
2018-12-19T07:47:27.080Z,1014.94
2018-12-19T07:48:27.094Z,1014.95
2018-12-19T07:49:27.069Z,1014.96
2018-12-19T07:50:27.099Z,1014.89
2018-12-19T07:51:27.039Z,1014.91
2018-12-19T07:52:27.356Z,1014.90
2018-12-19T07:53:27.040Z,1014.84
2018-12-19T07:54:27.034Z,1014.89
2018-12-19T07:55:27.007Z,1014.80
2018-12-19T07:56:26.994Z,1014.88
2018-12-19T07:57:26.976Z,1014.84
2018-12-19T07:58:26.970Z,1014.81
2018-12-19T07:59:26.981Z,1014.82
2018-12-19T08:00:27.542Z,1014.84
2018-12-19T08:01:26.947Z,1014.90
2018-12-19T08:02:26.938Z,1014.90
2018-12-19T08:03:26.916Z,1014.95
2018-12-19T08:04:27.904Z,1014.93
2018-12-19T08:05:26.995Z,1014.99
2018-12-19T08:06:26.881Z,1014.94
2018-12-19T08:07:26.880Z,1014.89
2018-12-19T08:08:26.874Z,1014.88
2018-12-19T08:09:26.887Z,1014.90
2018-12-19T08:10:26.842Z,1014.85
2018-12-19T08:11:26.831Z,1014.85
2018-12-19T08:12:27.064Z,1014.88
2018-12-19T08:13:26.812Z,1014.85
2018-12-19T08:14:26.826Z,1014.87
2018-12-19T08:15:27.056Z,1014.83
2018-12-19T08:16:26.784Z,1014.84
2018-12-19T08:17:26.817Z,1014.90
2018-12-19T08:18:26.785Z,1014.84
2018-12-19T08:19:26.980Z,1014.89
2018-12-19T08:20:26.764Z,1014.78
2018-12-19T08:21:26.724Z,1014.80
2018-12-19T08:22:26.714Z,1014.81
2018-12-19T08:23:26.708Z,1014.86
2018-12-19T08:24:26.723Z,1014.78
2018-12-19T08:25:26.692Z,1014.75
2018-12-19T08:26:26.676Z,1014.78
2018-12-19T08:27:26.662Z,1014.76
2018-12-19T08:28:26.651Z,1014.83
2018-12-19T08:29:26.675Z,1014.91
2018-12-19T08:30:26.630Z,1014.85
2018-12-19T08:31:27.452Z,1014.85
2018-12-19T08:32:26.664Z,1014.84
2018-12-19T08:33:26.597Z,1014.82
2018-12-19T08:34:26.609Z,1014.91
2018-12-19T08:35:26.586Z,1014.84
2018-12-19T08:36:26.570Z,1014.86
2018-12-19T08:37:26.567Z,1014.84
2018-12-19T08:38:26.607Z,1014.86
2018-12-19T08:39:26.551Z,1014.81
2018-12-19T08:40:26.523Z,1014.81
2018-12-19T08:41:26.537Z,1014.78
2018-12-19T08:42:26.565Z,1014.85
2018-12-19T08:43:26.522Z,1014.77
2018-12-19T08:44:26.479Z,1014.81
2018-12-19T08:45:26.523Z,1014.86
2018-12-19T08:46:26.462Z,1014.85
2018-12-19T08:47:26.452Z,1014.87
2018-12-19T08:48:26.449Z,1014.92
2018-12-19T08:49:26.435Z,1014.91
2018-12-19T08:50:26.429Z,1014.94
2018-12-19T08:51:26.409Z,1014.98
2018-12-19T08:52:26.403Z,1014.96
2018-12-19T08:53:26.973Z,1014.92
2018-12-19T08:54:26.381Z,1014.93
2018-12-19T08:55:26.389Z,1014.99
2018-12-19T08:56:26.360Z,1014.97
2018-12-19T08:57:26.344Z,1014.92
2018-12-19T08:58:26.353Z,1015.00
2018-12-19T08:59:26.327Z,1014.95
2018-12-19T09:00:26.332Z,1014.97
2018-12-19T09:01:26.340Z,1014.94
2018-12-19T09:02:26.287Z,1015.00
2018-12-19T09:03:26.281Z,1014.94
2018-12-19T09:04:26.269Z,1014.90
2018-12-19T09:05:26.265Z,1014.95
2018-12-19T09:06:26.273Z,1014.92
2018-12-19T09:07:26.235Z,1014.89
2018-12-19T09:08:26.229Z,1014.91
2018-12-19T09:09:26.215Z,1014.87
2018-12-19T09:10:26.206Z,1014.90
2018-12-19T09:11:26.217Z,1014.91
2018-12-19T09:12:26.210Z,1014.88
2018-12-19T09:13:26.169Z,1014.88
2018-12-19T09:14:26.169Z,1014.78
2018-12-19T09:15:27.775Z,1014.79
2018-12-19T09:16:26.165Z,1014.72
2018-12-19T09:17:26.150Z,1014.74
2018-12-19T09:18:26.126Z,1014.74
2018-12-19T09:19:26.135Z,1014.68
2018-12-19T09:20:26.102Z,1014.62
2018-12-19T09:21:26.111Z,1014.57
2018-12-19T09:22:26.101Z,1014.59
2018-12-19T09:23:26.077Z,1014.62
2018-12-19T09:24:26.063Z,1014.58
2018-12-19T09:25:26.042Z,1014.56
2018-12-19T09:26:26.062Z,1014.63
2018-12-19T09:27:26.023Z,1014.63
2018-12-19T09:28:26.019Z,1014.57
2018-12-19T09:29:26.033Z,1014.66
2018-12-19T09:30:26.005Z,1014.60
2018-12-19T09:31:26.063Z,1014.54
2018-12-19T09:32:25.980Z,1014.50
2018-12-19T09:33:27.604Z,1014.48
2018-12-19T09:34:25.984Z,1014.48
2018-12-19T09:35:25.950Z,1014.51
2018-12-19T09:36:25.948Z,1014.50
2018-12-19T09:37:25.974Z,1014.50
2018-12-19T09:38:25.911Z,1014.52
2018-12-19T09:39:25.938Z,1014.46
2018-12-19T09:40:25.927Z,1014.40
2018-12-19T09:41:25.888Z,1014.39
2018-12-19T09:42:25.894Z,1014.39
2018-12-19T09:43:25.856Z,1014.40
2018-12-19T09:44:25.848Z,1014.42
2018-12-19T09:45:25.837Z,1014.39
2018-12-19T09:46:25.831Z,1014.31
2018-12-19T09:47:25.838Z,1014.28
2018-12-19T09:48:25.803Z,1014.26
2018-12-19T09:49:25.798Z,1014.16
2018-12-19T09:50:25.783Z,1014.12
2018-12-19T09:51:25.774Z,1014.07
2018-12-19T09:52:25.776Z,1014.05
2018-12-19T09:53:25.757Z,1014.02
2018-12-19T09:54:25.740Z,1014.03
2018-12-19T09:55:25.746Z,1014.08
2018-12-19T09:56:25.722Z,1014.13
2018-12-19T09:57:25.787Z,1014.06
2018-12-19T09:58:25.722Z,1014.07
2018-12-19T09:59:25.699Z,1014.08
2018-12-19T10:00:25.699Z,1014.10
2018-12-19T10:01:25.668Z,1014.08
2018-12-19T10:02:25.652Z,1014.07
2018-12-19T10:03:25.657Z,1014.14
2018-12-19T10:04:25.649Z,1014.13
2018-12-19T10:05:25.635Z,1014.11
2018-12-19T10:06:25.619Z,1014.19
2018-12-19T10:07:25.606Z,1014.29
2018-12-19T10:08:25.622Z,1014.39
2018-12-19T10:09:25.598Z,1014.46
2018-12-19T10:10:25.602Z,1014.41
2018-12-19T10:11:25.573Z,1014.45
2018-12-19T10:12:25.570Z,1014.39
2018-12-19T10:13:25.546Z,1014.39
2018-12-19T10:14:25.549Z,1014.35
2018-12-19T10:15:25.534Z,1014.36
2018-12-19T10:16:25.509Z,1014.34
2018-12-19T10:17:25.510Z,1014.36
2018-12-19T10:18:25.512Z,1014.35
2018-12-19T10:19:25.471Z,1014.36
2018-12-19T10:20:25.488Z,1014.34
2018-12-19T10:21:25.457Z,1014.37
2018-12-19T10:22:25.451Z,1014.41
2018-12-19T10:23:25.433Z,1014.32
2018-12-19T10:24:25.476Z,1014.31
2018-12-19T10:25:25.412Z,1014.24
2018-12-19T10:26:25.412Z,1014.36
2018-12-19T10:27:25.395Z,1014.23
2018-12-19T10:28:25.389Z,1014.27
2018-12-19T10:29:25.390Z,1014.26
2018-12-19T10:30:25.362Z,1014.25
2018-12-19T10:31:25.354Z,1014.23
2018-12-19T10:32:25.347Z,1014.29
2018-12-19T10:33:25.359Z,1014.23
2018-12-19T10:34:25.343Z,1014.24
2018-12-19T10:35:25.302Z,1014.21
2018-12-19T10:36:25.299Z,1014.22
2018-12-19T10:37:25.291Z,1014.13
2018-12-19T10:38:25.274Z,1014.16
2018-12-19T10:39:25.298Z,1014.12
2018-12-19T10:40:25.270Z,1014.13
2018-12-19T10:41:25.684Z,1014.13
2018-12-19T10:42:25.248Z,1014.06
2018-12-19T10:43:25.225Z,1014.06
2018-12-19T10:44:25.233Z,1014.04
2018-12-19T10:45:25.203Z,1014.01
2018-12-19T10:46:25.190Z,1013.92
2018-12-19T10:47:25.184Z,1014.00
2018-12-19T10:48:25.175Z,1014.03
2018-12-19T10:49:25.221Z,1013.99
2018-12-19T10:50:25.177Z,1013.98
2018-12-19T10:51:25.171Z,1013.92
2018-12-19T10:52:25.140Z,1013.94
2018-12-19T10:53:25.121Z,1013.93
2018-12-19T10:54:25.131Z,1013.92
2018-12-19T10:55:25.104Z,1013.83
2018-12-19T10:56:25.109Z,1013.85
2018-12-19T10:57:25.077Z,1013.81
2018-12-19T10:58:25.078Z,1013.88
2018-12-19T10:59:25.079Z,1013.79
2018-12-19T11:00:25.042Z,1013.82
2018-12-19T11:01:25.043Z,1013.81
2018-12-19T11:02:25.026Z,1013.76
2018-12-19T11:03:25.019Z,1013.79
2018-12-19T11:04:25.036Z,1013.85
2018-12-19T11:05:24.999Z,1013.78
2018-12-19T11:06:25.005Z,1013.82
2018-12-19T11:07:24.981Z,1013.81
2018-12-19T11:08:24.963Z,1013.76
2018-12-19T11:09:24.959Z,1013.83
2018-12-19T11:10:24.957Z,1013.78
2018-12-19T11:11:24.930Z,1013.78
2018-12-19T11:12:24.919Z,1013.72
2018-12-19T11:13:24.915Z,1013.73
2018-12-19T11:14:24.924Z,1013.73
2018-12-19T11:15:24.899Z,1013.69
2018-12-19T11:16:24.880Z,1013.70
2018-12-19T11:17:24.871Z,1013.69
2018-12-19T11:18:24.862Z,1013.65
2018-12-19T11:19:24.853Z,1013.64
2018-12-19T11:20:24.875Z,1013.66
2018-12-19T11:21:24.843Z,1013.68
2018-12-19T11:22:24.808Z,1013.69
2018-12-19T11:23:24.813Z,1013.65
2018-12-19T11:24:24.796Z,1013.66
2018-12-19T11:25:24.805Z,1013.65
2018-12-19T11:26:24.773Z,1013.59
2018-12-19T11:27:24.779Z,1013.58
2018-12-19T11:28:24.749Z,1013.60
2018-12-19T11:29:24.736Z,1013.55
2018-12-19T11:30:24.738Z,1013.49
2018-12-19T11:31:24.740Z,1013.51
2018-12-19T11:32:24.705Z,1013.49
2018-12-19T11:33:24.707Z,1013.53
2018-12-19T11:34:24.689Z,1013.45
2018-12-19T11:35:24.677Z,1013.51
2018-12-19T11:36:24.679Z,1013.51
2018-12-19T11:37:24.671Z,1013.48
2018-12-19T11:38:24.679Z,1013.45
2018-12-19T11:39:24.635Z,1013.51
2018-12-19T11:40:24.632Z,1013.49
2018-12-19T11:41:24.633Z,1013.49
2018-12-19T11:42:24.603Z,1013.54
2018-12-19T11:43:24.607Z,1013.54
2018-12-19T11:44:24.581Z,1013.49
2018-12-19T11:45:24.571Z,1013.47
2018-12-19T11:46:24.595Z,1013.40
2018-12-19T11:47:24.587Z,1013.45
2018-12-19T11:48:24.539Z,1013.42
2018-12-19T11:49:24.525Z,1013.41
2018-12-19T11:50:24.519Z,1013.35
2018-12-19T11:51:24.513Z,1013.38
2018-12-19T11:52:24.518Z,1013.41
2018-12-19T11:53:24.491Z,1013.45
2018-12-19T11:54:24.477Z,1013.45
2018-12-19T11:55:24.467Z,1013.43
2018-12-19T11:56:24.498Z,1013.46
2018-12-19T11:57:24.473Z,1013.36
2018-12-19T11:58:24.441Z,1013.37
2018-12-19T11:59:24.439Z,1013.41
2018-12-19T12:00:24.421Z,1013.38
2018-12-19T12:01:24.399Z,1013.33
2018-12-19T12:02:24.407Z,1013.34
2018-12-19T12:03:24.391Z,1013.38
2018-12-19T12:04:24.369Z,1013.34
2018-12-19T12:05:24.365Z,1013.42